sensor_id;sensor_type;location;lat;lon;timestamp;P1;durP1;ratioP1;P2;durP2;ratioP2
52858;SDS011;38721;53.098;6.596;2023-10-19T00:02:08;24.90;;;17.05;;
52858;SDS011;38721;53.098;6.596;2023-10-19T00:04:33;22.88;;;16.23;;
52858;SDS011;38721;53.098;6.596;2023-10-19T00:07:02;24.70;;;17.40;;
52858;SDS011;38721;53.098;6.596;2023-10-19T00:09:34;20.80;;;16.15;;
52858;SDS011;38721;53.098;6.596;2023-10-19T00:12:04;22.95;;;16.73;;
52858;SDS011;38721;53.098;6.596;2023-10-19T00:14:34;24.33;;;16.77;;
52858;SDS011;38721;53.098;6.596;2023-10-19T00:17:00;22.55;;;16.63;;
52858;SDS011;38721;53.098;6.596;2023-10-19T00:19:30;26.02;;;16.60;;
52858;SDS011;38721;53.098;6.596;2023-10-19T00:22:03;27.00;;;16.20;;
52858;SDS011;38721;53.098;6.596;2023-10-19T00:24:33;24.73;;;16.98;;
52858;SDS011;38721;53.098;6.596;2023-10-19T00:27:00;26.20;;;17.30;;
52858;SDS011;38721;53.098;6.596;2023-10-19T00:29:35;25.58;;;17.20;;
52858;SDS011;38721;53.098;6.596;2023-10-19T00:32:05;23.98;;;17.40;;
52858;SDS011;38721;53.098;6.596;2023-10-19T00:34:39;29.30;;;17.73;;
52858;SDS011;38721;53.098;6.596;2023-10-19T00:37:05;24.10;;;17.83;;
52858;SDS011;38721;53.098;6.596;2023-10-19T00:39:34;24.08;;;18.02;;
52858;SDS011;38721;53.098;6.596;2023-10-19T00:42:09;23.80;;;17.75;;
52858;SDS011;38721;53.098;6.596;2023-10-19T00:44:35;26.08;;;18.08;;
52858;SDS011;38721;53.098;6.596;2023-10-19T00:47:07;23.92;;;17.70;;
52858;SDS011;38721;53.098;6.596;2023-10-19T00:49:44;25.70;;;18.88;;
52858;SDS011;38721;53.098;6.596;2023-10-19T00:52:13;25.73;;;18.27;;
52858;SDS011;38721;53.098;6.596;2023-10-19T00:54:45;28.60;;;18.75;;
52858;SDS011;38721;53.098;6.596;2023-10-19T00:57:15;26.55;;;19.08;;
52858;SDS011;38721;53.098;6.596;2023-10-19T00:59:45;27.35;;;17.67;;
52858;SDS011;38721;53.098;6.596;2023-10-19T01:02:19;27.43;;;17.93;;
52858;SDS011;38721;53.098;6.596;2023-10-19T01:04:53;24.88;;;17.90;;
52858;SDS011;38721;53.098;6.596;2023-10-19T01:07:30;27.05;;;19.50;;
52858;SDS011;38721;53.098;6.596;2023-10-19T01:09:59;27.58;;;19.23;;
52858;SDS011;38721;53.098;6.596;2023-10-19T01:12:29;28.88;;;19.73;;
52858;SDS011;38721;53.098;6.596;2023-10-19T01:15:04;27.25;;;20.17;;
52858;SDS011;38721;53.098;6.596;2023-10-19T01:17:53;27.80;;;19.52;;
52858;SDS011;38721;53.098;6.596;2023-10-19T01:20:27;28.67;;;19.38;;
52858;SDS011;38721;53.098;6.596;2023-10-19T01:23:07;28.55;;;20.15;;
52858;SDS011;38721;53.098;6.596;2023-10-19T01:28:21;27.20;;;19.67;;
52858;SDS011;38721;53.098;6.596;2023-10-19T01:30:51;25.42;;;19.27;;
52858;SDS011;38721;53.098;6.596;2023-10-19T01:33:17;28.98;;;20.35;;
52858;SDS011;38721;53.098;6.596;2023-10-19T01:35:43;30.30;;;20.58;;
52858;SDS011;38721;53.098;6.596;2023-10-19T01:38:28;28.63;;;20.30;;
52858;SDS011;38721;53.098;6.596;2023-10-19T01:41:02;28.98;;;20.20;;
52858;SDS011;38721;53.098;6.596;2023-10-19T01:43:39;29.50;;;20.00;;
52858;SDS011;38721;53.098;6.596;2023-10-19T01:46:05;27.70;;;20.15;;
52858;SDS011;38721;53.098;6.596;2023-10-19T01:48:37;26.50;;;20.42;;
52858;SDS011;38721;53.098;6.596;2023-10-19T01:51:07;25.98;;;20.27;;
52858;SDS011;38721;53.098;6.596;2023-10-19T01:53:37;29.20;;;22.73;;
52858;SDS011;38721;53.098;6.596;2023-10-19T01:56:10;28.23;;;21.33;;
52858;SDS011;38721;53.098;6.596;2023-10-19T01:58:40;30.17;;;22.30;;
52858;SDS011;38721;53.098;6.596;2023-10-19T02:01:06;28.17;;;21.77;;
52858;SDS011;38721;53.098;6.596;2023-10-19T02:03:42;27.88;;;21.27;;
52858;SDS011;38721;53.098;6.596;2023-10-19T02:06:09;25.10;;;20.70;;
52858;SDS011;38721;53.098;6.596;2023-10-19T02:08:42;29.45;;;21.30;;
52858;SDS011;38721;53.098;6.596;2023-10-19T02:11:14;26.88;;;20.52;;
52858;SDS011;38721;53.098;6.596;2023-10-19T02:13:46;27.98;;;21.02;;
52858;SDS011;38721;53.098;6.596;2023-10-19T02:16:18;28.03;;;21.30;;
52858;SDS011;38721;53.098;6.596;2023-10-19T02:18:50;29.25;;;21.52;;
52858;SDS011;38721;53.098;6.596;2023-10-19T02:21:17;25.88;;;20.05;;
52858;SDS011;38721;53.098;6.596;2023-10-19T02:23:56;27.67;;;20.52;;
52858;SDS011;38721;53.098;6.596;2023-10-19T02:26:22;25.10;;;19.50;;
52858;SDS011;38721;53.098;6.596;2023-10-19T02:28:51;24.42;;;19.63;;
52858;SDS011;38721;53.098;6.596;2023-10-19T02:31:18;24.90;;;19.38;;
52858;SDS011;38721;53.098;6.596;2023-10-19T02:33:46;25.77;;;20.08;;
52858;SDS011;38721;53.098;6.596;2023-10-19T02:36:17;25.33;;;19.90;;
52858;SDS011;38721;53.098;6.596;2023-10-19T02:38:46;27.27;;;20.30;;
52858;SDS011;38721;53.098;6.596;2023-10-19T02:41:16;24.30;;;18.58;;
52858;SDS011;38721;53.098;6.596;2023-10-19T02:43:42;24.55;;;18.83;;
52858;SDS011;38721;53.098;6.596;2023-10-19T02:46:12;26.30;;;18.33;;
52858;SDS011;38721;53.098;6.596;2023-10-19T02:48:39;24.98;;;17.70;;
52858;SDS011;38721;53.098;6.596;2023-10-19T02:51:12;23.60;;;18.05;;
52858;SDS011;38721;53.098;6.596;2023-10-19T02:53:41;27.95;;;17.55;;
52858;SDS011;38721;53.098;6.596;2023-10-19T02:56:14;24.08;;;16.65;;
52858;SDS011;38721;53.098;6.596;2023-10-19T02:58:44;21.92;;;16.73;;
52858;SDS011;38721;53.098;6.596;2023-10-19T03:01:15;21.05;;;15.60;;
52858;SDS011;38721;53.098;6.596;2023-10-19T03:03:52;20.90;;;15.75;;
52858;SDS011;38721;53.098;6.596;2023-10-19T03:06:20;20.77;;;16.00;;
52858;SDS011;38721;53.098;6.596;2023-10-19T03:08:47;19.58;;;15.40;;
52858;SDS011;38721;53.098;6.596;2023-10-19T03:11:17;22.83;;;16.60;;
52858;SDS011;38721;53.098;6.596;2023-10-19T03:13:44;18.45;;;14.60;;
52858;SDS011;38721;53.098;6.596;2023-10-19T03:16:10;19.95;;;14.93;;
52858;SDS011;38721;53.098;6.596;2023-10-19T03:18:35;21.02;;;16.08;;
52858;SDS011;38721;53.098;6.596;2023-10-19T03:21:04;21.15;;;16.02;;
52858;SDS011;38721;53.098;6.596;2023-10-19T03:23:30;18.70;;;14.93;;
52858;SDS011;38721;53.098;6.596;2023-10-19T03:25:59;20.10;;;15.70;;
52858;SDS011;38721;53.098;6.596;2023-10-19T03:28:44;18.88;;;15.02;;
52858;SDS011;38721;53.098;6.596;2023-10-19T03:31:11;20.85;;;15.77;;
52858;SDS011;38721;53.098;6.596;2023-10-19T03:33:44;20.00;;;15.32;;
52858;SDS011;38721;53.098;6.596;2023-10-19T03:36:14;19.08;;;14.30;;
52858;SDS011;38721;53.098;6.596;2023-10-19T03:38:40;19.52;;;15.45;;
52858;SDS011;38721;53.098;6.596;2023-10-19T03:41:07;16.92;;;14.00;;
52858;SDS011;38721;53.098;6.596;2023-10-19T03:43:35;19.70;;;15.13;;
52858;SDS011;38721;53.098;6.596;2023-10-19T03:46:05;17.80;;;14.10;;
52858;SDS011;38721;53.098;6.596;2023-10-19T03:48:44;17.83;;;13.05;;
52858;SDS011;38721;53.098;6.596;2023-10-19T03:51:11;17.55;;;14.18;;
52858;SDS011;38721;53.098;6.596;2023-10-19T03:53:38;16.60;;;13.05;;
52858;SDS011;38721;53.098;6.596;2023-10-19T03:56:09;17.00;;;12.73;;
52858;SDS011;38721;53.098;6.596;2023-10-19T03:58:36;18.02;;;14.27;;
52858;SDS011;38721;53.098;6.596;2023-10-19T04:01:04;18.75;;;14.80;;
52858;SDS011;38721;53.098;6.596;2023-10-19T04:03:30;17.92;;;14.13;;
52858;SDS011;38721;53.098;6.596;2023-10-19T04:05:56;18.13;;;13.57;;
52858;SDS011;38721;53.098;6.596;2023-10-19T04:08:25;19.95;;;13.60;;
52858;SDS011;38721;53.098;6.596;2023-10-19T04:10:52;16.52;;;13.18;;
52858;SDS011;38721;53.098;6.596;2023-10-19T04:13:40;16.17;;;12.55;;
52858;SDS011;38721;53.098;6.596;2023-10-19T04:16:06;18.17;;;13.85;;
52858;SDS011;38721;53.098;6.596;2023-10-19T04:18:35;17.52;;;13.18;;
52858;SDS011;38721;53.098;6.596;2023-10-19T04:21:05;16.70;;;13.00;;
52858;SDS011;38721;53.098;6.596;2023-10-19T04:23:30;17.48;;;12.63;;
52858;SDS011;38721;53.098;6.596;2023-10-19T04:26:00;15.55;;;12.55;;
52858;SDS011;38721;53.098;6.596;2023-10-19T04:28:30;14.77;;;12.15;;
52858;SDS011;38721;53.098;6.596;2023-10-19T04:30:57;13.18;;;11.05;;
52858;SDS011;38721;53.098;6.596;2023-10-19T04:33:28;16.33;;;12.30;;
52858;SDS011;38721;53.098;6.596;2023-10-19T04:35:55;16.63;;;12.68;;
52858;SDS011;38721;53.098;6.596;2023-10-19T04:38:24;13.55;;;11.77;;
52858;SDS011;38721;53.098;6.596;2023-10-19T04:40:50;14.20;;;11.30;;
52858;SDS011;38721;53.098;6.596;2023-10-19T04:43:15;13.70;;;10.85;;
52858;SDS011;38721;53.098;6.596;2023-10-19T04:45:46;15.10;;;11.90;;
52858;SDS011;38721;53.098;6.596;2023-10-19T04:48:12;14.20;;;11.60;;
52858;SDS011;38721;53.098;6.596;2023-10-19T04:50:38;13.38;;;10.85;;
52858;SDS011;38721;53.098;6.596;2023-10-19T04:53:04;13.07;;;10.50;;
52858;SDS011;38721;53.098;6.596;2023-10-19T04:55:30;12.32;;;9.65;;
52858;SDS011;38721;53.098;6.596;2023-10-19T04:57:56;13.75;;;10.30;;
52858;SDS011;38721;53.098;6.596;2023-10-19T05:00:22;13.55;;;10.27;;
52858;SDS011;38721;53.098;6.596;2023-10-19T05:02:49;12.18;;;10.18;;
52858;SDS011;38721;53.098;6.596;2023-10-19T05:05:17;11.77;;;10.32;;
52858;SDS011;38721;53.098;6.596;2023-10-19T05:07:43;12.05;;;10.27;;
52858;SDS011;38721;53.098;6.596;2023-10-19T05:10:09;12.38;;;10.30;;
52858;SDS011;38721;53.098;6.596;2023-10-19T05:12:36;11.52;;;9.88;;
52858;SDS011;38721;53.098;6.596;2023-10-19T05:15:02;12.73;;;10.30;;
52858;SDS011;38721;53.098;6.596;2023-10-19T05:17:30;11.45;;;9.45;;
52858;SDS011;38721;53.098;6.596;2023-10-19T05:19:56;11.43;;;9.73;;
52858;SDS011;38721;53.098;6.596;2023-10-19T05:22:23;10.85;;;8.85;;
52858;SDS011;38721;53.098;6.596;2023-10-19T05:24:50;10.75;;;8.93;;
52858;SDS011;38721;53.098;6.596;2023-10-19T05:27:15;10.43;;;8.82;;
52858;SDS011;38721;53.098;6.596;2023-10-19T05:29:42;9.75;;;8.38;;
52858;SDS011;38721;53.098;6.596;2023-10-19T05:32:08;10.57;;;8.10;;
52858;SDS011;38721;53.098;6.596;2023-10-19T05:34:34;11.10;;;9.40;;
52858;SDS011;38721;53.098;6.596;2023-10-19T05:37:00;10.20;;;8.68;;
52858;SDS011;38721;53.098;6.596;2023-10-19T05:39:30;8.23;;;6.28;;
52858;SDS011;38721;53.098;6.596;2023-10-19T05:41:58;8.48;;;6.47;;
52858;SDS011;38721;53.098;6.596;2023-10-19T05:44:26;8.85;;;7.03;;
52858;SDS011;38721;53.098;6.596;2023-10-19T05:46:55;8.52;;;6.63;;
52858;SDS011;38721;53.098;6.596;2023-10-19T05:49:21;9.05;;;6.72;;
52858;SDS011;38721;53.098;6.596;2023-10-19T05:51:49;7.65;;;6.40;;
52858;SDS011;38721;53.098;6.596;2023-10-19T05:54:18;7.82;;;5.88;;
52858;SDS011;38721;53.098;6.596;2023-10-19T05:56:43;9.02;;;6.25;;
52858;SDS011;38721;53.098;6.596;2023-10-19T05:59:10;6.97;;;6.05;;
52858;SDS011;38721;53.098;6.596;2023-10-19T06:01:36;7.68;;;6.72;;
52858;SDS011;38721;53.098;6.596;2023-10-19T06:04:02;9.05;;;6.05;;
52858;SDS011;38721;53.098;6.596;2023-10-19T06:06:28;8.20;;;6.35;;
52858;SDS011;38721;53.098;6.596;2023-10-19T06:08:54;7.75;;;6.28;;
52858;SDS011;38721;53.098;6.596;2023-10-19T06:11:20;7.28;;;5.80;;
52858;SDS011;38721;53.098;6.596;2023-10-19T06:13:46;8.20;;;6.32;;
52858;SDS011;38721;53.098;6.596;2023-10-19T06:16:12;7.72;;;6.38;;
52858;SDS011;38721;53.098;6.596;2023-10-19T06:18:39;8.23;;;6.60;;
52858;SDS011;38721;53.098;6.596;2023-10-19T06:21:05;7.55;;;6.05;;
52858;SDS011;38721;53.098;6.596;2023-10-19T06:23:31;7.90;;;6.18;;
52858;SDS011;38721;53.098;6.596;2023-10-19T06:25:57;7.28;;;5.55;;
52858;SDS011;38721;53.098;6.596;2023-10-19T06:28:24;6.60;;;5.53;;
52858;SDS011;38721;53.098;6.596;2023-10-19T06:30:50;8.73;;;5.90;;
52858;SDS011;38721;53.098;6.596;2023-10-19T06:33:16;7.13;;;5.15;;
52858;SDS011;38721;53.098;6.596;2023-10-19T06:35:42;6.80;;;5.43;;
52858;SDS011;38721;53.098;6.596;2023-10-19T06:38:07;6.32;;;5.00;;
52858;SDS011;38721;53.098;6.596;2023-10-19T06:40:34;7.00;;;5.30;;
52858;SDS011;38721;53.098;6.596;2023-10-19T06:43:06;5.90;;;4.65;;
52858;SDS011;38721;53.098;6.596;2023-10-19T06:45:32;6.88;;;5.03;;
52858;SDS011;38721;53.098;6.596;2023-10-19T06:48:01;5.80;;;4.68;;
52858;SDS011;38721;53.098;6.596;2023-10-19T06:50:28;5.40;;;4.22;;
52858;SDS011;38721;53.098;6.596;2023-10-19T06:52:55;5.72;;;4.55;;
52858;SDS011;38721;53.098;6.596;2023-10-19T06:55:20;6.05;;;4.47;;
52858;SDS011;38721;53.098;6.596;2023-10-19T06:57:50;6.32;;;4.47;;
52858;SDS011;38721;53.098;6.596;2023-10-19T07:00:18;5.13;;;3.92;;
52858;SDS011;38721;53.098;6.596;2023-10-19T07:02:46;5.70;;;4.55;;
52858;SDS011;38721;53.098;6.596;2023-10-19T07:05:13;6.00;;;4.65;;
52858;SDS011;38721;53.098;6.596;2023-10-19T07:07:43;5.65;;;4.28;;
52858;SDS011;38721;53.098;6.596;2023-10-19T07:10:10;4.20;;;3.70;;
52858;SDS011;38721;53.098;6.596;2023-10-19T07:12:40;4.97;;;3.90;;
52858;SDS011;38721;53.098;6.596;2023-10-19T07:15:08;5.60;;;3.53;;
52858;SDS011;38721;53.098;6.596;2023-10-19T07:17:34;4.70;;;3.67;;
52858;SDS011;38721;53.098;6.596;2023-10-19T07:20:02;4.70;;;3.67;;
52858;SDS011;38721;53.098;6.596;2023-10-19T07:22:31;5.90;;;3.80;;
52858;SDS011;38721;53.098;6.596;2023-10-19T07:25:04;4.65;;;3.90;;
52858;SDS011;38721;53.098;6.596;2023-10-19T07:27:31;4.70;;;3.70;;
52858;SDS011;38721;53.098;6.596;2023-10-19T07:29:58;4.40;;;3.72;;
52858;SDS011;38721;53.098;6.596;2023-10-19T07:32:25;4.63;;;3.55;;
52858;SDS011;38721;53.098;6.596;2023-10-19T07:34:51;4.60;;;3.58;;
52858;SDS011;38721;53.098;6.596;2023-10-19T07:37:17;3.75;;;2.90;;
52858;SDS011;38721;53.098;6.596;2023-10-19T07:39:46;3.80;;;2.88;;
52858;SDS011;38721;53.098;6.596;2023-10-19T07:42:12;4.70;;;3.63;;
52858;SDS011;38721;53.098;6.596;2023-10-19T07:44:42;4.38;;;3.35;;
52858;SDS011;38721;53.098;6.596;2023-10-19T07:47:10;5.63;;;3.70;;
52858;SDS011;38721;53.098;6.596;2023-10-19T07:49:37;4.43;;;3.45;;
52858;SDS011;38721;53.098;6.596;2023-10-19T07:52:06;4.90;;;3.50;;
52858;SDS011;38721;53.098;6.596;2023-10-19T07:54:33;4.65;;;3.35;;
52858;SDS011;38721;53.098;6.596;2023-10-19T07:57:00;4.90;;;4.05;;
52858;SDS011;38721;53.098;6.596;2023-10-19T07:59:32;4.80;;;3.67;;
52858;SDS011;38721;53.098;6.596;2023-10-19T08:01:58;4.53;;;3.88;;
52858;SDS011;38721;53.098;6.596;2023-10-19T08:04:27;5.55;;;3.90;;
52858;SDS011;38721;53.098;6.596;2023-10-19T08:06:53;4.20;;;3.80;;
52858;SDS011;38721;53.098;6.596;2023-10-19T08:09:20;5.07;;;3.83;;
52858;SDS011;38721;53.098;6.596;2023-10-19T08:11:51;4.63;;;3.80;;
52858;SDS011;38721;53.098;6.596;2023-10-19T08:14:21;4.50;;;3.67;;
52858;SDS011;38721;53.098;6.596;2023-10-19T08:16:49;6.70;;;4.60;;
52858;SDS011;38721;53.098;6.596;2023-10-19T08:19:16;6.05;;;4.45;;
52858;SDS011;38721;53.098;6.596;2023-10-19T08:21:42;5.55;;;4.20;;
52858;SDS011;38721;53.098;6.596;2023-10-19T08:24:07;4.88;;;3.92;;
52858;SDS011;38721;53.098;6.596;2023-10-19T08:26:39;5.63;;;4.32;;
52858;SDS011;38721;53.098;6.596;2023-10-19T08:29:06;4.95;;;4.15;;
52858;SDS011;38721;53.098;6.596;2023-10-19T08:31:38;5.88;;;4.30;;
52858;SDS011;38721;53.098;6.596;2023-10-19T08:34:05;5.28;;;4.28;;
52858;SDS011;38721;53.098;6.596;2023-10-19T08:36:31;5.22;;;3.92;;
52858;SDS011;38721;53.098;6.596;2023-10-19T08:38:57;4.93;;;4.18;;
52858;SDS011;38721;53.098;6.596;2023-10-19T08:41:23;5.88;;;4.38;;
52858;SDS011;38721;53.098;6.596;2023-10-19T08:43:48;4.88;;;3.92;;
52858;SDS011;38721;53.098;6.596;2023-10-19T08:46:16;4.95;;;4.15;;
52858;SDS011;38721;53.098;6.596;2023-10-19T08:48:42;5.82;;;4.68;;
52858;SDS011;38721;53.098;6.596;2023-10-19T08:51:11;5.05;;;4.50;;
52858;SDS011;38721;53.098;6.596;2023-10-19T08:53:37;5.53;;;4.50;;
52858;SDS011;38721;53.098;6.596;2023-10-19T08:56:06;5.40;;;4.50;;
52858;SDS011;38721;53.098;6.596;2023-10-19T08:58:33;6.72;;;4.80;;
52858;SDS011;38721;53.098;6.596;2023-10-19T09:01:00;5.43;;;4.47;;
52858;SDS011;38721;53.098;6.596;2023-10-19T09:03:31;5.57;;;4.32;;
52858;SDS011;38721;53.098;6.596;2023-10-19T09:06:04;6.05;;;4.60;;
52858;SDS011;38721;53.098;6.596;2023-10-19T09:08:30;5.85;;;4.88;;
52858;SDS011;38721;53.098;6.596;2023-10-19T09:11:09;7.15;;;4.88;;
52858;SDS011;38721;53.098;6.596;2023-10-19T09:16:19;5.60;;;4.80;;
52858;SDS011;38721;53.098;6.596;2023-10-19T09:18:46;5.90;;;4.88;;
52858;SDS011;38721;53.098;6.596;2023-10-19T09:21:15;6.63;;;5.28;;
52858;SDS011;38721;53.098;6.596;2023-10-19T09:23:51;8.05;;;5.25;;
52858;SDS011;38721;53.098;6.596;2023-10-19T09:26:18;7.30;;;5.35;;
52858;SDS011;38721;53.098;6.596;2023-10-19T09:28:48;6.88;;;4.97;;
52858;SDS011;38721;53.098;6.596;2023-10-19T09:31:15;8.88;;;6.10;;
52858;SDS011;38721;53.098;6.596;2023-10-19T09:33:42;6.32;;;5.15;;
52858;SDS011;38721;53.098;6.596;2023-10-19T09:36:12;7.13;;;5.65;;
52858;SDS011;38721;53.098;6.596;2023-10-19T09:38:39;7.13;;;5.40;;
52858;SDS011;38721;53.098;6.596;2023-10-19T09:41:09;7.95;;;5.75;;
52858;SDS011;38721;53.098;6.596;2023-10-19T09:43:38;7.50;;;5.20;;
52858;SDS011;38721;53.098;6.596;2023-10-19T09:46:06;7.72;;;5.47;;
52858;SDS011;38721;53.098;6.596;2023-10-19T09:48:45;6.95;;;5.20;;
52858;SDS011;38721;53.098;6.596;2023-10-19T09:51:12;7.93;;;5.40;;
52858;SDS011;38721;53.098;6.596;2023-10-19T09:53:39;6.57;;;5.30;;
52858;SDS011;38721;53.098;6.596;2023-10-19T09:56:10;7.18;;;5.05;;
52858;SDS011;38721;53.098;6.596;2023-10-19T09:58:44;8.02;;;5.60;;
52858;SDS011;38721;53.098;6.596;2023-10-19T10:01:11;7.97;;;5.60;;
52858;SDS011;38721;53.098;6.596;2023-10-19T10:06:28;7.45;;;5.30;;
52858;SDS011;38721;53.098;6.596;2023-10-19T10:08:56;7.22;;;4.97;;
52858;SDS011;38721;53.098;6.596;2023-10-19T10:11:24;6.97;;;5.40;;
52858;SDS011;38721;53.098;6.596;2023-10-19T10:13:51;7.20;;;5.25;;
52858;SDS011;38721;53.098;6.596;2023-10-19T10:16:19;7.05;;;5.38;;
52858;SDS011;38721;53.098;6.596;2023-10-19T10:18:47;7.05;;;5.15;;
52858;SDS011;38721;53.098;6.596;2023-10-19T10:21:21;7.38;;;5.07;;
52858;SDS011;38721;53.098;6.596;2023-10-19T10:23:53;8.37;;;5.33;;
52858;SDS011;38721;53.098;6.596;2023-10-19T10:26:24;9.05;;;5.95;;
52858;SDS011;38721;53.098;6.596;2023-10-19T10:31:47;7.88;;;5.97;;
52858;SDS011;38721;53.098;6.596;2023-10-19T10:36:59;10.30;;;6.65;;
52858;SDS011;38721;53.098;6.596;2023-10-19T10:39:27;7.38;;;5.80;;
52858;SDS011;38721;53.098;6.596;2023-10-19T10:42:00;8.93;;;5.90;;
52858;SDS011;38721;53.098;6.596;2023-10-19T10:44:41;9.13;;;5.90;;
52858;SDS011;38721;53.098;6.596;2023-10-19T10:47:09;7.28;;;5.68;;
52858;SDS011;38721;53.098;6.596;2023-10-19T10:49:47;8.63;;;6.55;;
52858;SDS011;38721;53.098;6.596;2023-10-19T10:52:22;7.70;;;5.95;;
52858;SDS011;38721;53.098;6.596;2023-10-19T10:55:06;10.15;;;6.57;;
52858;SDS011;38721;53.098;6.596;2023-10-19T10:57:36;8.10;;;5.90;;
52858;SDS011;38721;53.098;6.596;2023-10-19T11:02:41;7.63;;;5.88;;
52858;SDS011;38721;53.098;6.596;2023-10-19T11:05:15;8.30;;;6.83;;
52858;SDS011;38721;53.098;6.596;2023-10-19T11:08:03;9.15;;;6.32;;
52858;SDS011;38721;53.098;6.596;2023-10-19T11:10:39;10.25;;;6.93;;
52858;SDS011;38721;53.098;6.596;2023-10-19T11:13:15;10.68;;;6.68;;
52858;SDS011;38721;53.098;6.596;2023-10-19T11:15:54;10.32;;;6.28;;
52858;SDS011;38721;53.098;6.596;2023-10-19T11:18:36;7.22;;;5.80;;
52858;SDS011;38721;53.098;6.596;2023-10-19T11:21:11;7.25;;;6.07;;
52858;SDS011;38721;53.098;6.596;2023-10-19T11:26:18;8.20;;;5.93;;
52858;SDS011;38721;53.098;6.596;2023-10-19T11:28:45;8.32;;;6.22;;
52858;SDS011;38721;53.098;6.596;2023-10-19T11:33:48;6.38;;;5.40;;
52858;SDS011;38721;53.098;6.596;2023-10-19T11:36:19;7.60;;;5.82;;
52858;SDS011;38721;53.098;6.596;2023-10-19T11:38:47;6.50;;;5.50;;
52858;SDS011;38721;53.098;6.596;2023-10-19T11:41:15;6.85;;;5.57;;
52858;SDS011;38721;53.098;6.596;2023-10-19T11:43:42;7.30;;;5.22;;
52858;SDS011;38721;53.098;6.596;2023-10-19T11:46:09;7.63;;;6.00;;
52858;SDS011;38721;53.098;6.596;2023-10-19T11:48:37;9.30;;;6.07;;
52858;SDS011;38721;53.098;6.596;2023-10-19T11:51:05;9.10;;;5.70;;
52858;SDS011;38721;53.098;6.596;2023-10-19T11:53:36;7.47;;;6.07;;
52858;SDS011;38721;53.098;6.596;2023-10-19T11:56:03;7.18;;;6.10;;
52858;SDS011;38721;53.098;6.596;2023-10-19T11:58:30;8.63;;;5.68;;
52858;SDS011;38721;53.098;6.596;2023-10-19T12:01:00;9.55;;;6.15;;
52858;SDS011;38721;53.098;6.596;2023-10-19T12:03:30;6.05;;;4.72;;
52858;SDS011;38721;53.098;6.596;2023-10-19T12:05:56;7.82;;;4.85;;
52858;SDS011;38721;53.098;6.596;2023-10-19T12:08:22;8.05;;;5.50;;
52858;SDS011;38721;53.098;6.596;2023-10-19T12:10:49;8.48;;;5.50;;
52858;SDS011;38721;53.098;6.596;2023-10-19T12:13:16;7.00;;;5.75;;
52858;SDS011;38721;53.098;6.596;2023-10-19T12:15:42;7.75;;;5.72;;
52858;SDS011;38721;53.098;6.596;2023-10-19T12:18:16;7.65;;;5.07;;
52858;SDS011;38721;53.098;6.596;2023-10-19T12:20:45;6.38;;;5.35;;
52858;SDS011;38721;53.098;6.596;2023-10-19T12:23:12;6.85;;;5.60;;
52858;SDS011;38721;53.098;6.596;2023-10-19T12:25:38;9.68;;;5.63;;
52858;SDS011;38721;53.098;6.596;2023-10-19T12:28:04;10.40;;;5.88;;
52858;SDS011;38721;53.098;6.596;2023-10-19T12:30:30;8.45;;;5.50;;
52858;SDS011;38721;53.098;6.596;2023-10-19T12:33:04;9.88;;;6.78;;
52858;SDS011;38721;53.098;6.596;2023-10-19T12:35:36;8.25;;;6.95;;
52858;SDS011;38721;53.098;6.596;2023-10-19T12:38:16;8.95;;;6.55;;
52858;SDS011;38721;53.098;6.596;2023-10-19T12:40:43;10.27;;;6.97;;
52858;SDS011;38721;53.098;6.596;2023-10-19T12:43:09;7.07;;;5.80;;
52858;SDS011;38721;53.098;6.596;2023-10-19T12:45:35;8.43;;;6.18;;
52858;SDS011;38721;53.098;6.596;2023-10-19T12:48:05;10.68;;;6.43;;
52858;SDS011;38721;53.098;6.596;2023-10-19T12:50:36;8.95;;;6.25;;
52858;SDS011;38721;53.098;6.596;2023-10-19T12:53:03;9.65;;;6.47;;
52858;SDS011;38721;53.098;6.596;2023-10-19T12:55:29;8.82;;;6.35;;
52858;SDS011;38721;53.098;6.596;2023-10-19T12:57:56;9.98;;;6.85;;
52858;SDS011;38721;53.098;6.596;2023-10-19T13:00:22;8.25;;;6.15;;
52858;SDS011;38721;53.098;6.596;2023-10-19T13:02:54;9.00;;;6.28;;
52858;SDS011;38721;53.098;6.596;2023-10-19T13:05:31;9.55;;;6.00;;
52858;SDS011;38721;53.098;6.596;2023-10-19T13:07:58;7.78;;;5.72;;
52858;SDS011;38721;53.098;6.596;2023-10-19T13:10:33;8.55;;;5.40;;
52858;SDS011;38721;53.098;6.596;2023-10-19T13:13:04;8.45;;;5.60;;
52858;SDS011;38721;53.098;6.596;2023-10-19T13:15:34;12.48;;;5.57;;
52858;SDS011;38721;53.098;6.596;2023-10-19T13:18:01;6.80;;;5.35;;
52858;SDS011;38721;53.098;6.596;2023-10-19T13:20:28;7.20;;;5.03;;
52858;SDS011;38721;53.098;6.596;2023-10-19T13:23:07;7.35;;;5.43;;
52858;SDS011;38721;53.098;6.596;2023-10-19T13:25:36;8.98;;;6.00;;
52858;SDS011;38721;53.098;6.596;2023-10-19T13:28:16;8.40;;;5.90;;
52858;SDS011;38721;53.098;6.596;2023-10-19T13:30:45;9.68;;;6.15;;
52858;SDS011;38721;53.098;6.596;2023-10-19T13:33:13;8.40;;;6.53;;
52858;SDS011;38721;53.098;6.596;2023-10-19T13:35:42;9.00;;;7.22;;
52858;SDS011;38721;53.098;6.596;2023-10-19T13:38:09;10.68;;;8.70;;
52858;SDS011;38721;53.098;6.596;2023-10-19T13:40:37;14.55;;;10.75;;
52858;SDS011;38721;53.098;6.596;2023-10-19T13:43:04;16.95;;;13.00;;
52858;SDS011;38721;53.098;6.596;2023-10-19T13:45:32;15.75;;;12.63;;
52858;SDS011;38721;53.098;6.596;2023-10-19T13:48:05;15.13;;;12.95;;
52858;SDS011;38721;53.098;6.596;2023-10-19T13:50:31;17.00;;;13.77;;
52858;SDS011;38721;53.098;6.596;2023-10-19T13:52:58;18.08;;;13.57;;
52858;SDS011;38721;53.098;6.596;2023-10-19T13:55:30;17.58;;;13.93;;
52858;SDS011;38721;53.098;6.596;2023-10-19T13:57:56;18.92;;;14.07;;
52858;SDS011;38721;53.098;6.596;2023-10-19T14:00:23;17.95;;;14.40;;
52858;SDS011;38721;53.098;6.596;2023-10-19T14:03:04;18.50;;;14.60;;
52858;SDS011;38721;53.098;6.596;2023-10-19T14:05:35;17.58;;;15.13;;
52858;SDS011;38721;53.098;6.596;2023-10-19T14:08:13;20.75;;;15.23;;
52858;SDS011;38721;53.098;6.596;2023-10-19T14:10:40;17.13;;;15.18;;
52858;SDS011;38721;53.098;6.596;2023-10-19T14:13:10;20.30;;;15.90;;
52858;SDS011;38721;53.098;6.596;2023-10-19T14:15:45;22.38;;;15.10;;
52858;SDS011;38721;53.098;6.596;2023-10-19T14:18:10;22.33;;;14.93;;
52858;SDS011;38721;53.098;6.596;2023-10-19T14:20:36;19.83;;;15.50;;
52858;SDS011;38721;53.098;6.596;2023-10-19T14:23:04;21.60;;;15.40;;
52858;SDS011;38721;53.098;6.596;2023-10-19T14:25:30;20.15;;;14.90;;
52858;SDS011;38721;53.098;6.596;2023-10-19T14:27:56;21.88;;;15.18;;
52858;SDS011;38721;53.098;6.596;2023-10-19T14:30:27;19.52;;;13.95;;
52858;SDS011;38721;53.098;6.596;2023-10-19T14:32:53;18.85;;;13.63;;
52858;SDS011;38721;53.098;6.596;2023-10-19T14:35:23;20.65;;;12.68;;
52858;SDS011;38721;53.098;6.596;2023-10-19T14:37:51;17.70;;;12.60;;
52858;SDS011;38721;53.098;6.596;2023-10-19T14:40:24;16.60;;;12.82;;
52858;SDS011;38721;53.098;6.596;2023-10-19T14:42:52;16.27;;;12.20;;
52858;SDS011;38721;53.098;6.596;2023-10-19T14:45:21;16.83;;;11.77;;
52858;SDS011;38721;53.098;6.596;2023-10-19T14:47:53;16.67;;;11.68;;
52858;SDS011;38721;53.098;6.596;2023-10-19T14:50:20;17.02;;;11.77;;
52858;SDS011;38721;53.098;6.596;2023-10-19T14:52:48;14.98;;;10.68;;
52858;SDS011;38721;53.098;6.596;2023-10-19T14:55:15;17.00;;;10.25;;
52858;SDS011;38721;53.098;6.596;2023-10-19T14:57:45;15.48;;;10.38;;
52858;SDS011;38721;53.098;6.596;2023-10-19T15:00:23;15.48;;;10.68;;
52858;SDS011;38721;53.098;6.596;2023-10-19T15:02:54;16.80;;;11.10;;
52858;SDS011;38721;53.098;6.596;2023-10-19T15:05:21;15.48;;;10.38;;
52858;SDS011;38721;53.098;6.596;2023-10-19T15:07:50;18.73;;;11.32;;
52858;SDS011;38721;53.098;6.596;2023-10-19T15:10:20;18.20;;;11.52;;